Terminal Aerodrome Forecast
Issued by NWS

Home | Current Version | Previous Version | Text Only | Print | Product List | Glossary On
Versions: 1 2 3 4 5 6 7 8 9 10 11 12 13
968
FTUS42 TJSJ 280054 AAA
TAFKPK
TAF AMD
TKPK 280054Z 2801/2824 05015KT P6SM SCT017
     FM281000 08014KT P6SM VCSH SCT018
     FM281600 05020G30KT P6SM SCT020 BKN030 PROB30 2816/2818 -TSRA
      SCT012 BKN020 OVC030CB
     FM282200 07017KT P6SM SCT021
      AMD NOT SKED 2802/2811=

USA.gov is the U.S. government's official web portal to all federal, state and local government web resources and services.